sensor_id;sensor_type;location;lat;lon;timestamp;P1;durP1;ratioP1;P2;durP2;ratioP2
35394;SDS011;21500;45.308;9.488;2022-08-03T00:00:27;12.00;;;10.73;;
35394;SDS011;21500;45.308;9.488;2022-08-03T00:02:58;12.80;;;11.05;;
35394;SDS011;21500;45.308;9.488;2022-08-03T00:05:31;16.58;;;10.60;;
35394;SDS011;21500;45.308;9.488;2022-08-03T00:07:59;11.52;;;10.27;;
35394;SDS011;21500;45.308;9.488;2022-08-03T00:13:03;16.38;;;10.93;;
35394;SDS011;21500;45.308;9.488;2022-08-03T00:15:30;11.02;;;9.82;;
35394;SDS011;21500;45.308;9.488;2022-08-03T00:18:11;12.35;;;11.07;;
35394;SDS011;21500;45.308;9.488;2022-08-03T00:20:40;11.75;;;10.18;;
35394;SDS011;21500;45.308;9.488;2022-08-03T00:23:06;11.82;;;10.18;;
35394;SDS011;21500;45.308;9.488;2022-08-03T00:25:34;10.75;;;9.73;;
35394;SDS011;21500;45.308;9.488;2022-08-03T00:28:04;11.73;;;10.45;;
35394;SDS011;21500;45.308;9.488;2022-08-03T00:30:31;10.45;;;9.35;;
35394;SDS011;21500;45.308;9.488;2022-08-03T00:33:07;11.50;;;10.40;;
35394;SDS011;21500;45.308;9.488;2022-08-03T00:35:35;10.68;;;9.35;;
35394;SDS011;21500;45.308;9.488;2022-08-03T00:38:01;13.85;;;10.68;;
35394;SDS011;21500;45.308;9.488;2022-08-03T00:40:32;10.32;;;9.23;;
35394;SDS011;21500;45.308;9.488;2022-08-03T00:43:11;10.63;;;9.50;;
35394;SDS011;21500;45.308;9.488;2022-08-03T00:45:39;13.77;;;10.77;;
35394;SDS011;21500;45.308;9.488;2022-08-03T00:48:13;11.07;;;9.73;;
35394;SDS011;21500;45.308;9.488;2022-08-03T00:50:40;11.85;;;9.60;;
35394;SDS011;21500;45.308;9.488;2022-08-03T00:53:11;10.05;;;9.02;;
35394;SDS011;21500;45.308;9.488;2022-08-03T00:55:41;11.35;;;9.38;;
35394;SDS011;21500;45.308;9.488;2022-08-03T00:58:10;9.77;;;8.90;;
35394;SDS011;21500;45.308;9.488;2022-08-03T01:00:41;8.90;;;8.10;;
35394;SDS011;21500;45.308;9.488;2022-08-03T01:03:09;10.65;;;9.05;;
35394;SDS011;21500;45.308;9.488;2022-08-03T01:05:57;9.07;;;8.15;;
35394;SDS011;21500;45.308;9.488;2022-08-03T01:09:22;9.43;;;8.63;;
35394;SDS011;21500;45.308;9.488;2022-08-03T01:13:08;9.48;;;7.50;;
35394;SDS011;21500;45.308;9.488;2022-08-03T01:16:02;9.95;;;9.05;;
35394;SDS011;21500;45.308;9.488;2022-08-03T01:22:36;9.88;;;8.90;;
35394;SDS011;21500;45.308;9.488;2022-08-03T01:31:44;9.95;;;9.00;;
35394;SDS011;21500;45.308;9.488;2022-08-03T01:35:05;12.52;;;10.30;;
35394;SDS011;21500;45.308;9.488;2022-08-03T01:37:56;11.63;;;10.48;;
35394;SDS011;21500;45.308;9.488;2022-08-03T01:40:35;11.63;;;9.57;;
35394;SDS011;21500;45.308;9.488;2022-08-03T01:43:41;10.80;;;9.80;;
35394;SDS011;21500;45.308;9.488;2022-08-03T01:46:19;10.60;;;9.60;;
35394;SDS011;21500;45.308;9.488;2022-08-03T01:48:59;13.40;;;9.77;;
35394;SDS011;21500;45.308;9.488;2022-08-03T01:51:30;10.40;;;9.38;;
35394;SDS011;21500;45.308;9.488;2022-08-03T01:53:58;10.48;;;9.43;;
35394;SDS011;21500;45.308;9.488;2022-08-03T01:56:31;13.13;;;10.55;;
35394;SDS011;21500;45.308;9.488;2022-08-03T01:58:59;11.35;;;10.02;;
35394;SDS011;21500;45.308;9.488;2022-08-03T02:01:31;12.30;;;10.13;;
35394;SDS011;21500;45.308;9.488;2022-08-03T02:04:00;11.52;;;10.20;;
35394;SDS011;21500;45.308;9.488;2022-08-03T02:06:32;10.73;;;9.68;;
35394;SDS011;21500;45.308;9.488;2022-08-03T02:09:03;12.18;;;10.88;;
35394;SDS011;21500;45.308;9.488;2022-08-03T02:11:33;17.05;;;11.77;;
35394;SDS011;21500;45.308;9.488;2022-08-03T02:14:03;13.43;;;12.13;;
35394;SDS011;21500;45.308;9.488;2022-08-03T02:16:33;13.85;;;12.45;;
35394;SDS011;21500;45.308;9.488;2022-08-03T02:19:06;15.45;;;11.73;;
35394;SDS011;21500;45.308;9.488;2022-08-03T02:21:37;14.35;;;11.93;;
35394;SDS011;21500;45.308;9.488;2022-08-03T02:24:09;15.75;;;12.25;;
35394;SDS011;21500;45.308;9.488;2022-08-03T02:26:46;13.35;;;12.02;;
35394;SDS011;21500;45.308;9.488;2022-08-03T02:29:20;13.25;;;11.30;;
35394;SDS011;21500;45.308;9.488;2022-08-03T02:31:53;14.38;;;12.07;;
35394;SDS011;21500;45.308;9.488;2022-08-03T02:34:25;12.20;;;11.10;;
35394;SDS011;21500;45.308;9.488;2022-08-03T02:37:17;16.00;;;12.50;;
35394;SDS011;21500;45.308;9.488;2022-08-03T02:39:48;15.07;;;11.60;;
35394;SDS011;21500;45.308;9.488;2022-08-03T02:42:20;13.63;;;12.27;;
35394;SDS011;21500;45.308;9.488;2022-08-03T02:44:54;12.80;;;11.60;;
35394;SDS011;21500;45.308;9.488;2022-08-03T02:47:28;11.65;;;10.52;;
35394;SDS011;21500;45.308;9.488;2022-08-03T02:50:02;12.57;;;11.57;;
35394;SDS011;21500;45.308;9.488;2022-08-03T02:52:35;12.52;;;11.32;;
35394;SDS011;21500;45.308;9.488;2022-08-03T02:55:04;14.02;;;12.48;;
35394;SDS011;21500;45.308;9.488;2022-08-03T02:57:36;13.48;;;11.60;;
35394;SDS011;21500;45.308;9.488;2022-08-03T03:00:04;13.57;;;12.20;;
35394;SDS011;21500;45.308;9.488;2022-08-03T03:02:44;12.38;;;11.18;;
35394;SDS011;21500;45.308;9.488;2022-08-03T03:05:23;12.52;;;11.20;;
35394;SDS011;21500;45.308;9.488;2022-08-03T03:07:53;13.75;;;12.35;;
35394;SDS011;21500;45.308;9.488;2022-08-03T03:10:28;13.07;;;10.85;;
35394;SDS011;21500;45.308;9.488;2022-08-03T03:12:56;20.02;;;12.35;;
35394;SDS011;21500;45.308;9.488;2022-08-03T03:15:28;11.05;;;10.02;;
35394;SDS011;21500;45.308;9.488;2022-08-03T03:21:37;10.77;;;9.77;;
35394;SDS011;21500;45.308;9.488;2022-08-03T03:24:09;15.68;;;10.32;;
35394;SDS011;21500;45.308;9.488;2022-08-03T03:26:51;10.85;;;9.85;;
35394;SDS011;21500;45.308;9.488;2022-08-03T03:29:19;10.65;;;9.13;;
35394;SDS011;21500;45.308;9.488;2022-08-03T03:31:49;11.70;;;10.13;;
35394;SDS011;21500;45.308;9.488;2022-08-03T03:34:19;11.50;;;9.40;;
35394;SDS011;21500;45.308;9.488;2022-08-03T03:36:57;10.35;;;9.35;;
35394;SDS011;21500;45.308;9.488;2022-08-03T03:39:36;13.13;;;9.32;;
35394;SDS011;21500;45.308;9.488;2022-08-03T03:42:15;10.00;;;8.98;;
35394;SDS011;21500;45.308;9.488;2022-08-03T03:45:14;11.23;;;9.05;;
35394;SDS011;21500;45.308;9.488;2022-08-03T03:48:22;10.90;;;9.73;;
35394;SDS011;21500;45.308;9.488;2022-08-03T03:50:52;9.40;;;8.40;;
35394;SDS011;21500;45.308;9.488;2022-08-03T03:53:35;9.70;;;8.70;;
35394;SDS011;21500;45.308;9.488;2022-08-03T03:56:06;11.48;;;10.43;;
35394;SDS011;21500;45.308;9.488;2022-08-03T03:58:40;9.75;;;8.23;;
35394;SDS011;21500;45.308;9.488;2022-08-03T04:01:11;11.98;;;7.97;;
35394;SDS011;21500;45.308;9.488;2022-08-03T04:03:39;9.25;;;8.32;;
35394;SDS011;21500;45.308;9.488;2022-08-03T04:06:38;8.88;;;7.80;;
35394;SDS011;21500;45.308;9.488;2022-08-03T04:09:56;9.73;;;8.73;;
35394;SDS011;21500;45.308;9.488;2022-08-03T04:12:44;10.90;;;9.68;;
35394;SDS011;21500;45.308;9.488;2022-08-03T04:15:33;11.70;;;8.48;;
35394;SDS011;21500;45.308;9.488;2022-08-03T04:18:17;9.10;;;8.27;;
35394;SDS011;21500;45.308;9.488;2022-08-03T04:20:50;9.40;;;8.50;;
35394;SDS011;21500;45.308;9.488;2022-08-03T04:23:23;10.30;;;8.65;;
35394;SDS011;21500;45.308;9.488;2022-08-03T04:25:57;8.18;;;7.25;;
35394;SDS011;21500;45.308;9.488;2022-08-03T04:28:29;8.85;;;8.02;;
35394;SDS011;21500;45.308;9.488;2022-08-03T04:31:42;10.18;;;7.90;;
35394;SDS011;21500;45.308;9.488;2022-08-03T04:34:27;11.15;;;6.95;;
35394;SDS011;21500;45.308;9.488;2022-08-03T04:37:37;9.43;;;8.18;;
35394;SDS011;21500;45.308;9.488;2022-08-03T04:40:21;9.65;;;8.10;;
35394;SDS011;21500;45.308;9.488;2022-08-03T04:43:08;10.05;;;8.95;;
35394;SDS011;21500;45.308;9.488;2022-08-03T04:45:50;11.15;;;8.68;;
35394;SDS011;21500;45.308;9.488;2022-08-03T04:48:20;9.10;;;8.20;;
35394;SDS011;21500;45.308;9.488;2022-08-03T04:50:56;9.25;;;8.35;;
35394;SDS011;21500;45.308;9.488;2022-08-03T04:53:48;11.35;;;9.82;;
35394;SDS011;21500;45.308;9.488;2022-08-03T04:56:33;11.55;;;9.75;;
35394;SDS011;21500;45.308;9.488;2022-08-03T04:59:22;12.25;;;9.73;;
35394;SDS011;21500;45.308;9.488;2022-08-03T05:01:51;10.43;;;9.32;;
35394;SDS011;21500;45.308;9.488;2022-08-03T05:04:26;13.32;;;10.15;;
35394;SDS011;21500;45.308;9.488;2022-08-03T05:07:15;12.48;;;10.73;;
35394;SDS011;21500;45.308;9.488;2022-08-03T05:10:00;10.38;;;8.63;;
35394;SDS011;21500;45.308;9.488;2022-08-03T05:12:46;9.38;;;8.38;;
35394;SDS011;21500;45.308;9.488;2022-08-03T05:15:16;10.05;;;8.35;;
35394;SDS011;21500;45.308;9.488;2022-08-03T05:17:46;12.77;;;9.65;;
35394;SDS011;21500;45.308;9.488;2022-08-03T05:20:18;10.65;;;9.10;;
35394;SDS011;21500;45.308;9.488;2022-08-03T05:23:01;10.18;;;9.18;;
35394;SDS011;21500;45.308;9.488;2022-08-03T05:25:32;8.27;;;7.55;;
35394;SDS011;21500;45.308;9.488;2022-08-03T05:28:14;8.77;;;7.95;;
35394;SDS011;21500;45.308;9.488;2022-08-03T05:30:55;8.43;;;7.63;;
35394;SDS011;21500;45.308;9.488;2022-08-03T05:37:33;10.00;;;8.88;;
35394;SDS011;21500;45.308;9.488;2022-08-03T05:40:43;12.95;;;8.82;;
35394;SDS011;21500;45.308;9.488;2022-08-03T05:43:39;12.13;;;9.02;;
35394;SDS011;21500;45.308;9.488;2022-08-03T05:46:18;11.10;;;9.70;;
35394;SDS011;21500;45.308;9.488;2022-08-03T05:48:52;9.90;;;8.95;;
35394;SDS011;21500;45.308;9.488;2022-08-03T05:51:21;10.07;;;8.70;;
35394;SDS011;21500;45.308;9.488;2022-08-03T05:53:57;11.23;;;9.63;;
35394;SDS011;21500;45.308;9.488;2022-08-03T05:57:09;11.32;;;10.25;;
35394;SDS011;21500;45.308;9.488;2022-08-03T06:00:50;11.98;;;10.63;;
35394;SDS011;21500;45.308;9.488;2022-08-03T06:03:41;12.15;;;9.70;;
35394;SDS011;21500;45.308;9.488;2022-08-03T06:06:11;11.95;;;9.77;;
35394;SDS011;21500;45.308;9.488;2022-08-03T06:08:45;11.73;;;10.63;;
35394;SDS011;21500;45.308;9.488;2022-08-03T06:11:36;11.52;;;9.95;;
35394;SDS011;21500;45.308;9.488;2022-08-03T06:14:13;11.85;;;9.63;;
35394;SDS011;21500;45.308;9.488;2022-08-03T06:17:27;11.35;;;9.73;;
35394;SDS011;21500;45.308;9.488;2022-08-03T06:20:01;9.88;;;8.93;;
35394;SDS011;21500;45.308;9.488;2022-08-03T06:23:24;11.15;;;9.95;;
35394;SDS011;21500;45.308;9.488;2022-08-03T06:26:09;8.55;;;7.75;;
35394;SDS011;21500;45.308;9.488;2022-08-03T06:29:06;11.00;;;8.88;;
35394;SDS011;21500;45.308;9.488;2022-08-03T06:31:36;10.23;;;8.05;;
35394;SDS011;21500;45.308;9.488;2022-08-03T06:34:03;9.52;;;8.43;;
35394;SDS011;21500;45.308;9.488;2022-08-03T06:36:30;9.10;;;8.10;;
35394;SDS011;21500;45.308;9.488;2022-08-03T06:38:59;16.42;;;9.38;;
35394;SDS011;21500;45.308;9.488;2022-08-03T06:41:25;10.23;;;8.75;;
35394;SDS011;21500;45.308;9.488;2022-08-03T06:43:52;12.65;;;9.23;;
35394;SDS011;21500;45.308;9.488;2022-08-03T06:46:18;10.02;;;9.02;;
35394;SDS011;21500;45.308;9.488;2022-08-03T06:48:44;8.70;;;7.80;;
35394;SDS011;21500;45.308;9.488;2022-08-03T06:51:11;9.50;;;8.50;;
35394;SDS011;21500;45.308;9.488;2022-08-03T06:53:37;10.82;;;8.68;;
35394;SDS011;21500;45.308;9.488;2022-08-03T06:56:06;10.40;;;9.40;;
35394;SDS011;21500;45.308;9.488;2022-08-03T06:58:32;11.95;;;8.90;;
35394;SDS011;21500;45.308;9.488;2022-08-03T07:00:58;9.93;;;8.52;;
35394;SDS011;21500;45.308;9.488;2022-08-03T07:03:24;11.95;;;9.15;;
35394;SDS011;21500;45.308;9.488;2022-08-03T07:05:50;9.25;;;8.25;;
35394;SDS011;21500;45.308;9.488;2022-08-03T07:08:16;10.60;;;9.15;;
35394;SDS011;21500;45.308;9.488;2022-08-03T07:10:43;11.13;;;10.05;;
35394;SDS011;21500;45.308;9.488;2022-08-03T07:13:09;9.85;;;8.77;;
35394;SDS011;21500;45.308;9.488;2022-08-03T07:15:35;8.68;;;7.88;;
35394;SDS011;21500;45.308;9.488;2022-08-03T07:18:01;10.80;;;9.68;;
35394;SDS011;21500;45.308;9.488;2022-08-03T07:20:27;11.98;;;10.05;;
35394;SDS011;21500;45.308;9.488;2022-08-03T07:22:53;9.82;;;8.85;;
35394;SDS011;21500;45.308;9.488;2022-08-03T07:25:19;14.10;;;8.80;;
35394;SDS011;21500;45.308;9.488;2022-08-03T07:27:45;10.85;;;9.13;;
35394;SDS011;21500;45.308;9.488;2022-08-03T07:30:12;9.57;;;8.60;;
35394;SDS011;21500;45.308;9.488;2022-08-03T07:32:39;8.80;;;7.68;;
35394;SDS011;21500;45.308;9.488;2022-08-03T07:35:06;9.88;;;7.78;;
35394;SDS011;21500;45.308;9.488;2022-08-03T07:37:33;12.88;;;7.82;;
35394;SDS011;21500;45.308;9.488;2022-08-03T07:39:59;7.68;;;6.88;;
35394;SDS011;21500;45.308;9.488;2022-08-03T07:42:29;8.27;;;7.35;;
35394;SDS011;21500;45.308;9.488;2022-08-03T07:44:55;9.45;;;7.70;;
35394;SDS011;21500;45.308;9.488;2022-08-03T07:47:23;8.70;;;6.93;;
35394;SDS011;21500;45.308;9.488;2022-08-03T07:52:19;6.72;;;6.03;;
35394;SDS011;21500;45.308;9.488;2022-08-03T07:55:04;8.70;;;6.18;;
35394;SDS011;21500;45.308;9.488;2022-08-03T07:57:31;9.13;;;5.32;;
35394;SDS011;21500;45.308;9.488;2022-08-03T07:59:57;6.97;;;6.28;;
35394;SDS011;21500;45.308;9.488;2022-08-03T08:02:23;6.95;;;4.82;;
35394;SDS011;21500;45.308;9.488;2022-08-03T08:04:49;8.38;;;5.22;;
35394;SDS011;21500;45.308;9.488;2022-08-03T08:07:14;6.25;;;4.38;;
35394;SDS011;21500;45.308;9.488;2022-08-03T08:09:40;6.28;;;4.97;;
35394;SDS011;21500;45.308;9.488;2022-08-03T08:12:06;4.63;;;4.05;;
35394;SDS011;21500;45.308;9.488;2022-08-03T08:14:33;8.20;;;4.47;;
35394;SDS011;21500;45.308;9.488;2022-08-03T08:16:59;6.18;;;4.07;;
35394;SDS011;21500;45.308;9.488;2022-08-03T08:19:25;5.40;;;4.85;;
35394;SDS011;21500;45.308;9.488;2022-08-03T08:21:51;5.13;;;4.63;;
35394;SDS011;21500;45.308;9.488;2022-08-03T08:24:17;3.85;;;3.53;;
35394;SDS011;21500;45.308;9.488;2022-08-03T08:26:42;6.40;;;4.30;;
35394;SDS011;21500;45.308;9.488;2022-08-03T08:29:08;5.07;;;3.70;;
35394;SDS011;21500;45.308;9.488;2022-08-03T08:31:34;5.43;;;3.63;;
35394;SDS011;21500;45.308;9.488;2022-08-03T08:34:00;6.35;;;3.75;;
35394;SDS011;21500;45.308;9.488;2022-08-03T08:36:38;3.53;;;2.90;;
35394;SDS011;21500;45.308;9.488;2022-08-03T08:39:04;5.10;;;3.70;;
35394;SDS011;21500;45.308;9.488;2022-08-03T08:41:30;4.20;;;3.47;;
35394;SDS011;21500;45.308;9.488;2022-08-03T08:43:59;3.72;;;3.30;;
35394;SDS011;21500;45.308;9.488;2022-08-03T08:46:25;4.75;;;2.75;;
35394;SDS011;21500;45.308;9.488;2022-08-03T08:48:53;5.28;;;3.10;;
35394;SDS011;21500;45.308;9.488;2022-08-03T08:51:21;7.43;;;2.92;;
35394;SDS011;21500;45.308;9.488;2022-08-03T08:53:52;7.60;;;3.50;;
35394;SDS011;21500;45.308;9.488;2022-08-03T08:56:18;6.38;;;2.22;;
35394;SDS011;21500;45.308;9.488;2022-08-03T08:58:48;3.80;;;2.75;;
35394;SDS011;21500;45.308;9.488;2022-08-03T09:01:17;3.95;;;2.55;;
35394;SDS011;21500;45.308;9.488;2022-08-03T09:03:44;2.95;;;2.55;;
35394;SDS011;21500;45.308;9.488;2022-08-03T09:06:11;5.18;;;2.53;;
35394;SDS011;21500;45.308;9.488;2022-08-03T09:08:37;3.97;;;2.60;;
35394;SDS011;21500;45.308;9.488;2022-08-03T09:11:03;5.22;;;2.60;;
35394;SDS011;21500;45.308;9.488;2022-08-03T09:13:29;5.07;;;2.22;;
35394;SDS011;21500;45.308;9.488;2022-08-03T09:16:16;5.85;;;2.47;;
35394;SDS011;21500;45.308;9.488;2022-08-03T09:18:48;2.60;;;2.40;;
35394;SDS011;21500;45.308;9.488;2022-08-03T09:21:22;3.33;;;2.58;;
35394;SDS011;21500;45.308;9.488;2022-08-03T09:23:51;3.42;;;2.13;;
35394;SDS011;21500;45.308;9.488;2022-08-03T09:26:36;2.30;;;2.05;;
35394;SDS011;21500;45.308;9.488;2022-08-03T09:29:04;2.53;;;2.33;;
35394;SDS011;21500;45.308;9.488;2022-08-03T09:31:38;3.03;;;2.58;;
35394;SDS011;21500;45.308;9.488;2022-08-03T09:34:06;2.30;;;2.10;;
35394;SDS011;21500;45.308;9.488;2022-08-03T09:36:35;2.75;;;2.10;;
35394;SDS011;21500;45.308;9.488;2022-08-03T09:39:04;2.50;;;1.92;;
35394;SDS011;21500;45.308;9.488;2022-08-03T09:41:36;3.70;;;2.10;;
35394;SDS011;21500;45.308;9.488;2022-08-03T09:44:06;2.35;;;2.10;;
35394;SDS011;21500;45.308;9.488;2022-08-03T09:46:46;4.72;;;2.78;;
35394;SDS011;21500;45.308;9.488;2022-08-03T09:49:13;4.22;;;2.03;;
35394;SDS011;21500;45.308;9.488;2022-08-03T09:51:39;5.78;;;2.50;;
35394;SDS011;21500;45.308;9.488;2022-08-03T09:54:05;2.15;;;1.95;;
35394;SDS011;21500;45.308;9.488;2022-08-03T09:56:41;1.83;;;1.45;;
35394;SDS011;21500;45.308;9.488;2022-08-03T09:59:09;2.70;;;2.20;;
35394;SDS011;21500;45.308;9.488;2022-08-03T10:01:36;3.95;;;2.50;;
35394;SDS011;21500;45.308;9.488;2022-08-03T10:04:10;2.25;;;2.05;;
35394;SDS011;21500;45.308;9.488;2022-08-03T10:06:38;4.90;;;2.25;;
35394;SDS011;21500;45.308;9.488;2022-08-03T10:09:04;2.67;;;1.80;;
35394;SDS011;21500;45.308;9.488;2022-08-03T10:11:32;3.88;;;1.88;;
35394;SDS011;21500;45.308;9.488;2022-08-03T10:14:02;2.70;;;2.00;;
35394;SDS011;21500;45.308;9.488;2022-08-03T10:16:33;4.60;;;1.95;;
35394;SDS011;21500;45.308;9.488;2022-08-03T10:19:04;2.10;;;1.90;;
35394;SDS011;21500;45.308;9.488;2022-08-03T10:24:01;4.25;;;2.45;;
35394;SDS011;21500;45.308;9.488;2022-08-03T10:26:28;3.53;;;1.83;;
35394;SDS011;21500;45.308;9.488;2022-08-03T10:28:58;2.05;;;1.92;;
35394;SDS011;21500;45.308;9.488;2022-08-03T10:31:29;6.50;;;1.70;;
35394;SDS011;21500;45.308;9.488;2022-08-03T10:34:00;2.50;;;1.40;;
35394;SDS011;21500;45.308;9.488;2022-08-03T10:36:29;1.95;;;1.70;;
35394;SDS011;21500;45.308;9.488;2022-08-03T10:38:57;3.08;;;1.38;;
35394;SDS011;21500;45.308;9.488;2022-08-03T10:41:25;2.35;;;1.45;;
35394;SDS011;21500;45.308;9.488;2022-08-03T10:44:04;4.40;;;1.50;;
35394;SDS011;21500;45.308;9.488;2022-08-03T10:46:31;2.00;;;1.80;;
35394;SDS011;21500;45.308;9.488;2022-08-03T10:48:59;1.60;;;1.40;;
35394;SDS011;21500;45.308;9.488;2022-08-03T10:51:26;4.63;;;1.85;;
35394;SDS011;21500;45.308;9.488;2022-08-03T10:53:56;3.63;;;1.47;;
35394;SDS011;21500;45.308;9.488;2022-08-03T10:59:55;3.22;;;1.67;;
35394;SDS011;21500;45.308;9.488;2022-08-03T11:02:11;1.23;;;1.00;;
35394;SDS011;21500;45.308;9.488;2022-08-03T11:04:38;4.57;;;2.17;;
35394;SDS011;21500;45.308;9.488;2022-08-03T11:09:41;2.05;;;1.17;;
35394;SDS011;21500;45.308;9.488;2022-08-03T11:12:24;2.20;;;1.88;;
35394;SDS011;21500;45.308;9.488;2022-08-03T11:14:52;4.18;;;1.73;;
35394;SDS011;21500;45.308;9.488;2022-08-03T11:17:19;2.40;;;2.20;;
35394;SDS011;21500;45.308;9.488;2022-08-03T11:19:46;2.22;;;1.42;;
35394;SDS011;21500;45.308;9.488;2022-08-03T11:22:14;2.63;;;1.60;;
35394;SDS011;21500;45.308;9.488;2022-08-03T11:30:27;1.35;;;1.25;;
35394;SDS011;21500;45.308;9.488;2022-08-03T11:35:16;1.30;;;1.20;;
35394;SDS011;21500;45.308;9.488;2022-08-03T11:43:00;2.97;;;1.23;;
35394;SDS011;21500;45.308;9.488;2022-08-03T11:45:28;4.20;;;1.25;;
35394;SDS011;21500;45.308;9.488;2022-08-03T11:47:55;1.60;;;1.20;;
35394;SDS011;21500;45.308;9.488;2022-08-03T11:50:24;1.92;;;1.27;;
35394;SDS011;21500;45.308;9.488;2022-08-03T11:52:50;4.65;;;1.70;;
35394;SDS011;21500;45.308;9.488;2022-08-03T11:55:17;1.55;;;1.38;;
35394;SDS011;21500;45.308;9.488;2022-08-03T11:57:45;1.50;;;1.27;;
35394;SDS011;21500;45.308;9.488;2022-08-03T12:00:22;2.33;;;1.40;;
35394;SDS011;21500;45.308;9.488;2022-08-03T12:05:35;2.70;;;1.25;;
35394;SDS011;21500;45.308;9.488;2022-08-03T12:08:12;1.50;;;1.20;;
35394;SDS011;21500;45.308;9.488;2022-08-03T12:10:39;1.73;;;1.17;;
35394;SDS011;21500;45.308;9.488;2022-08-03T12:13:10;1.67;;;1.00;;
35394;SDS011;21500;45.308;9.488;2022-08-03T12:15:36;3.05;;;1.52;;
35394;SDS011;21500;45.308;9.488;2022-08-03T12:18:03;1.50;;;1.30;;
35394;SDS011;21500;45.308;9.488;2022-08-03T12:20:38;2.58;;;1.55;;
35394;SDS011;21500;45.308;9.488;2022-08-03T12:23:04;2.65;;;1.20;;
35394;SDS011;21500;45.308;9.488;2022-08-03T12:25:32;3.63;;;1.10;;
35394;SDS011;21500;45.308;9.488;2022-08-03T12:28:12;1.20;;;1.10;;
35394;SDS011;21500;45.308;9.488;2022-08-03T12:30:44;1.33;;;1.23;;
35394;SDS011;21500;45.308;9.488;2022-08-03T12:33:16;3.45;;;1.38;;
35394;SDS011;21500;45.308;9.488;2022-08-03T12:35:49;2.03;;;1.50;;
35394;SDS011;21500;45.308;9.488;2022-08-03T12:38:27;2.35;;;1.13;;
35394;SDS011;21500;45.308;9.488;2022-08-03T12:40:54;2.30;;;1.20;;
35394;SDS011;21500;45.308;9.488;2022-08-03T12:43:21;4.47;;;1.42;;
35394;SDS011;21500;45.308;9.488;2022-08-03T12:45:47;1.77;;;1.35;;
35394;SDS011;21500;45.308;9.488;2022-08-03T12:48:13;2.92;;;1.02;;
35394;SDS011;21500;45.308;9.488;2022-08-03T12:50:39;3.20;;;1.70;;
35394;SDS011;21500;45.308;9.488;2022-08-03T12:53:07;2.17;;;1.63;;
35394;SDS011;21500;45.308;9.488;2022-08-03T12:55:34;2.35;;;1.23;;
35394;SDS011;21500;45.308;9.488;2022-08-03T12:58:02;1.67;;;1.25;;
35394;SDS011;21500;45.308;9.488;2022-08-03T13:00:29;4.20;;;1.33;;
35394;SDS011;21500;45.308;9.488;2022-08-03T13:03:02;4.28;;;1.40;;
35394;SDS011;21500;45.308;9.488;2022-08-03T13:05:31;2.13;;;1.90;;
35394;SDS011;21500;45.308;9.488;2022-08-03T13:08:16;3.08;;;1.70;;
35394;SDS011;21500;45.308;9.488;2022-08-03T13:10:45;2.17;;;1.40;;
35394;SDS011;21500;45.308;9.488;2022-08-03T13:13:11;1.42;;;1.00;;
35394;SDS011;21500;45.308;9.488;2022-08-03T13:15:37;3.00;;;1.20;;
35394;SDS011;21500;45.308;9.488;2022-08-03T13:18:03;2.63;;;1.40;;
35394;SDS011;21500;45.308;9.488;2022-08-03T13:20:29;5.35;;;1.65;;
35394;SDS011;21500;45.308;9.488;2022-08-03T13:22:55;1.83;;;1.10;;
35394;SDS011;21500;45.308;9.488;2022-08-03T13:25:21;1.75;;;1.65;;
35394;SDS011;21500;45.308;9.488;2022-08-03T13:27:47;1.40;;;1.30;;
35394;SDS011;21500;45.308;9.488;2022-08-03T13:30:14;1.77;;;1.20;;
35394;SDS011;21500;45.308;9.488;2022-08-03T13:32:40;1.60;;;1.27;;
35394;SDS011;21500;45.308;9.488;2022-08-03T13:35:06;1.25;;;1.15;;
35394;SDS011;21500;45.308;9.488;2022-08-03T13:37:33;2.75;;;1.20;;
35394;SDS011;21500;45.308;9.488;2022-08-03T13:40:00;2.60;;;1.50;;
35394;SDS011;21500;45.308;9.488;2022-08-03T13:42:27;4.57;;;1.38;;
35394;SDS011;21500;45.308;9.488;2022-08-03T13:44:54;2.22;;;1.10;;
35394;SDS011;21500;45.308;9.488;2022-08-03T13:47:20;1.98;;;1.20;;
35394;SDS011;21500;45.308;9.488;2022-08-03T13:49:46;3.47;;;1.25;;
35394;SDS011;21500;45.308;9.488;2022-08-03T13:52:12;2.95;;;1.02;;
35394;SDS011;21500;45.308;9.488;2022-08-03T13:54:37;2.80;;;1.10;;
35394;SDS011;21500;45.308;9.488;2022-08-03T13:57:03;3.78;;;1.63;;
35394;SDS011;21500;45.308;9.488;2022-08-03T13:59:29;1.60;;;1.23;;
35394;SDS011;21500;45.308;9.488;2022-08-03T14:01:55;2.70;;;0.95;;
35394;SDS011;21500;45.308;9.488;2022-08-03T14:04:20;1.02;;;0.98;;
35394;SDS011;21500;45.308;9.488;2022-08-03T14:06:46;1.95;;;1.20;;
35394;SDS011;21500;45.308;9.488;2022-08-03T14:09:13;3.28;;;0.98;;
35394;SDS011;21500;45.308;9.488;2022-08-03T14:11:40;3.22;;;1.30;;
35394;SDS011;21500;45.308;9.488;2022-08-03T14:14:07;2.33;;;1.23;;
35394;SDS011;21500;45.308;9.488;2022-08-03T14:16:34;2.08;;;1.20;;
35394;SDS011;21500;45.308;9.488;2022-08-03T14:19:00;2.05;;;1.27;;
35394;SDS011;21500;45.308;9.488;2022-08-03T14:21:25;2.42;;;1.25;;
35394;SDS011;21500;45.308;9.488;2022-08-03T14:23:51;2.00;;;1.63;;
35394;SDS011;21500;45.308;9.488;2022-08-03T14:26:17;1.50;;;1.27;;
35394;SDS011;21500;45.308;9.488;2022-08-03T14:28:44;2.92;;;1.25;;
35394;SDS011;21500;45.308;9.488;2022-08-03T14:31:10;1.88;;;1.30;;
35394;SDS011;21500;45.308;9.488;2022-08-03T14:33:36;2.13;;;1.38;;
35394;SDS011;21500;45.308;9.488;2022-08-03T14:36:02;3.85;;;1.45;;
35394;SDS011;21500;45.308;9.488;2022-08-03T14:38:29;4.43;;;1.08;;
35394;SDS011;21500;45.308;9.488;2022-08-03T14:40:54;1.52;;;1.38;;
35394;SDS011;21500;45.308;9.488;2022-08-03T14:43:20;1.63;;;1.15;;
35394;SDS011;21500;45.308;9.488;2022-08-03T14:45:47;1.33;;;1.02;;
35394;SDS011;21500;45.308;9.488;2022-08-03T14:50:44;1.73;;;1.10;;
35394;SDS011;21500;45.308;9.488;2022-08-03T14:53:09;1.58;;;0.93;;
35394;SDS011;21500;45.308;9.488;2022-08-03T14:55:35;8.10;;;2.05;;
35394;SDS011;21500;45.308;9.488;2022-08-03T14:58:01;4.57;;;1.35;;
35394;SDS011;21500;45.308;9.488;2022-08-03T15:00:32;2.28;;;1.00;;
35394;SDS011;21500;45.308;9.488;2022-08-03T15:02:59;3.05;;;1.10;;
35394;SDS011;21500;45.308;9.488;2022-08-03T15:05:25;3.65;;;1.27;;
35394;SDS011;21500;45.308;9.488;2022-08-03T15:07:51;2.40;;;1.25;;
35394;SDS011;21500;45.308;9.488;2022-08-03T15:10:17;3.05;;;1.10;;
35394;SDS011;21500;45.308;9.488;2022-08-03T15:12:43;2.50;;;1.10;;
35394;SDS011;21500;45.308;9.488;2022-08-03T15:15:09;2.08;;;1.08;;
35394;SDS011;21500;45.308;9.488;2022-08-03T15:17:35;3.03;;;1.80;;
35394;SDS011;21500;45.308;9.488;2022-08-03T15:20:00;1.25;;;1.00;;
35394;SDS011;21500;45.308;9.488;2022-08-03T15:22:26;3.33;;;1.15;;
35394;SDS011;21500;45.308;9.488;2022-08-03T15:24:52;2.15;;;1.05;;
35394;SDS011;21500;45.308;9.488;2022-08-03T15:27:20;4.30;;;1.27;;
35394;SDS011;21500;45.308;9.488;2022-08-03T15:29:46;3.00;;;1.20;;
35394;SDS011;21500;45.308;9.488;2022-08-03T15:32:12;1.60;;;1.23;;
35394;SDS011;21500;45.308;9.488;2022-08-03T15:34:37;1.45;;;1.02;;
35394;SDS011;21500;45.308;9.488;2022-08-03T15:37:04;2.80;;;1.20;;
35394;SDS011;21500;45.308;9.488;2022-08-03T15:39:30;3.85;;;1.30;;
35394;SDS011;21500;45.308;9.488;2022-08-03T15:41:55;1.40;;;0.80;;
35394;SDS011;21500;45.308;9.488;2022-08-03T15:44:21;2.03;;;1.00;;
35394;SDS011;21500;45.308;9.488;2022-08-03T15:46:47;1.80;;;1.00;;
35394;SDS011;21500;45.308;9.488;2022-08-03T15:49:13;2.33;;;0.90;;
35394;SDS011;21500;45.308;9.488;2022-08-03T15:51:39;2.53;;;1.05;;
35394;SDS011;21500;45.308;9.488;2022-08-03T15:54:05;2.03;;;1.02;;
35394;SDS011;21500;45.308;9.488;2022-08-03T15:56:31;3.10;;;1.40;;
35394;SDS011;21500;45.308;9.488;2022-08-03T15:58:57;1.50;;;0.90;;
35394;SDS011;21500;45.308;9.488;2022-08-03T16:01:23;2.90;;;1.52;;